sensor_id;sensor_type;location;lat;lon;timestamp;pressure;altitude;pressure_sealevel;temperature;humidity
17615;BME280;8926;49.720;6.576;2022-07-01T00:01:21;99737.22;;;17.91;69.25
17615;BME280;8926;49.720;6.576;2022-07-01T00:03:46;99745.69;;;17.94;69.04
17615;BME280;8926;49.720;6.576;2022-07-01T00:06:15;99749.06;;;17.96;68.72
17615;BME280;8926;49.720;6.576;2022-07-01T00:08:41;99757.81;;;17.97;69.14
17615;BME280;8926;49.720;6.576;2022-07-01T00:11:06;99764.91;;;17.96;68.72
17615;BME280;8926;49.720;6.576;2022-07-01T00:13:32;99766.72;;;17.96;67.75
17615;BME280;8926;49.720;6.576;2022-07-01T00:15:57;99768.94;;;17.91;68.83
17615;BME280;8926;49.720;6.576;2022-07-01T00:18:23;99776.19;;;17.89;69.00
17615;BME280;8926;49.720;6.576;2022-07-01T00:20:49;99779.78;;;17.88;68.67
17615;BME280;8926;49.720;6.576;2022-07-01T00:23:16;99796.75;;;17.85;69.59
17615;BME280;8926;49.720;6.576;2022-07-01T00:25:42;99805.50;;;17.86;68.65
17615;BME280;8926;49.720;6.576;2022-07-01T00:28:07;99820.41;;;17.87;69.07
17615;BME280;8926;49.720;6.576;2022-07-01T00:30:33;99831.50;;;17.81;68.13
17615;BME280;8926;49.720;6.576;2022-07-01T00:32:58;99827.56;;;17.75;69.33
17615;BME280;8926;49.720;6.576;2022-07-01T00:35:23;99824.53;;;17.80;69.80
17615;BME280;8926;49.720;6.576;2022-07-01T00:37:48;99824.28;;;17.83;69.38
17615;BME280;8926;49.720;6.576;2022-07-01T00:40:14;99825.69;;;17.87;69.35
17615;BME280;8926;49.720;6.576;2022-07-01T00:42:40;99826.81;;;17.94;67.99
17615;BME280;8926;49.720;6.576;2022-07-01T00:45:08;99829.44;;;17.94;68.89
17615;BME280;8926;49.720;6.576;2022-07-01T00:47:36;99820.28;;;17.88;69.39
17615;BME280;8926;49.720;6.576;2022-07-01T00:50:02;99811.50;;;17.88;68.99
17615;BME280;8926;49.720;6.576;2022-07-01T00:52:28;99821.53;;;17.94;68.76
17615;BME280;8926;49.720;6.576;2022-07-01T00:54:53;99814.16;;;17.88;68.82
17615;BME280;8926;49.720;6.576;2022-07-01T00:57:20;99794.09;;;17.85;69.64
17615;BME280;8926;49.720;6.576;2022-07-01T00:59:45;99795.66;;;17.88;68.83
17615;BME280;8926;49.720;6.576;2022-07-01T01:02:11;99793.13;;;17.86;69.84
17615;BME280;8926;49.720;6.576;2022-07-01T01:04:36;99808.16;;;17.86;69.46
17615;BME280;8926;49.720;6.576;2022-07-01T01:07:02;99808.16;;;17.86;69.42
17615;BME280;8926;49.720;6.576;2022-07-01T01:09:29;99806.22;;;17.88;69.45
17615;BME280;8926;49.720;6.576;2022-07-01T01:11:55;99807.63;;;17.92;69.79
17615;BME280;8926;49.720;6.576;2022-07-01T01:14:20;99811.78;;;17.94;70.32
17615;BME280;8926;49.720;6.576;2022-07-01T01:16:47;99819.59;;;17.96;69.63
17615;BME280;8926;49.720;6.576;2022-07-01T01:19:12;99816.94;;;17.96;68.99
17615;BME280;8926;49.720;6.576;2022-07-01T01:21:38;99819.72;;;17.94;69.31
17615;BME280;8926;49.720;6.576;2022-07-01T01:24:04;99813.47;;;17.95;69.45
17615;BME280;8926;49.720;6.576;2022-07-01T01:26:32;99822.50;;;17.93;69.93
17615;BME280;8926;49.720;6.576;2022-07-01T01:28:57;99841.00;;;17.93;68.22
17615;BME280;8926;49.720;6.576;2022-07-01T01:31:30;99843.22;;;17.88;69.75
17615;BME280;8926;49.720;6.576;2022-07-01T01:33:56;99830.72;;;17.90;70.18
17615;BME280;8926;49.720;6.576;2022-07-01T01:36:22;99842.66;;;17.94;68.99
17615;BME280;8926;49.720;6.576;2022-07-01T01:38:47;99837.38;;;17.94;67.94
17615;BME280;8926;49.720;6.576;2022-07-01T01:41:13;99839.88;;;17.86;69.13
17615;BME280;8926;49.720;6.576;2022-07-01T01:43:38;99829.44;;;17.84;68.84
17615;BME280;8926;49.720;6.576;2022-07-01T01:46:03;99819.50;;;17.77;69.11
17615;BME280;8926;49.720;6.576;2022-07-01T01:48:30;99823.38;;;17.73;68.94
17615;BME280;8926;49.720;6.576;2022-07-01T01:50:56;99822.78;;;17.69;69.92
17615;BME280;8926;49.720;6.576;2022-07-01T01:53:21;99831.41;;;17.71;69.45
17615;BME280;8926;49.720;6.576;2022-07-01T01:55:47;99842.81;;;17.72;69.02
17615;BME280;8926;49.720;6.576;2022-07-01T01:58:12;99855.47;;;17.68;69.59
17615;BME280;8926;49.720;6.576;2022-07-01T02:00:38;99843.59;;;17.62;68.59
17615;BME280;8926;49.720;6.576;2022-07-01T02:03:03;99837.06;;;17.46;69.19
17615;BME280;8926;49.720;6.576;2022-07-01T02:05:28;99845.66;;;17.38;69.96
17615;BME280;8926;49.720;6.576;2022-07-01T02:07:54;99849.97;;;17.39;70.27
17615;BME280;8926;49.720;6.576;2022-07-01T02:10:19;99857.91;;;17.39;70.66
17615;BME280;8926;49.720;6.576;2022-07-01T02:12:45;99864.56;;;17.43;71.02
17615;BME280;8926;49.720;6.576;2022-07-01T02:15:12;99862.66;;;17.45;69.52
17615;BME280;8926;49.720;6.576;2022-07-01T02:17:37;99855.94;;;17.41;70.65
17615;BME280;8926;49.720;6.576;2022-07-01T02:20:03;99855.94;;;17.41;70.47
17615;BME280;8926;49.720;6.576;2022-07-01T02:22:29;99866.97;;;17.46;70.78
17615;BME280;8926;49.720;6.576;2022-07-01T02:24:54;99860.72;;;17.47;70.53
17615;BME280;8926;49.720;6.576;2022-07-01T02:27:19;99840.16;;;17.51;70.33
17615;BME280;8926;49.720;6.576;2022-07-01T02:29:45;99857.69;;;17.52;70.61
17615;BME280;8926;49.720;6.576;2022-07-01T02:32:10;99844.09;;;17.56;70.40
17615;BME280;8926;49.720;6.576;2022-07-01T02:34:35;99840.00;;;17.63;70.09
17615;BME280;8926;49.720;6.576;2022-07-01T02:37:01;99840.13;;;17.62;70.35
17615;BME280;8926;49.720;6.576;2022-07-01T02:39:26;99855.84;;;17.63;69.60
17615;BME280;8926;49.720;6.576;2022-07-01T02:41:52;99873.13;;;17.68;69.81
17615;BME280;8926;49.720;6.576;2022-07-01T02:44:35;99868.41;;;17.71;69.64
17615;BME280;8926;49.720;6.576;2022-07-01T02:47:01;99867.56;;;17.71;69.37
17615;BME280;8926;49.720;6.576;2022-07-01T02:49:26;99857.25;;;17.68;70.25
17615;BME280;8926;49.720;6.576;2022-07-01T02:51:51;99867.84;;;17.68;69.41
17615;BME280;8926;49.720;6.576;2022-07-01T02:54:17;99874.78;;;17.69;69.89
17615;BME280;8926;49.720;6.576;2022-07-01T02:56:42;99882.03;;;17.67;70.07
17615;BME280;8926;49.720;6.576;2022-07-01T02:59:07;99878.69;;;17.65;69.83
17615;BME280;8926;49.720;6.576;2022-07-01T03:01:33;99878.91;;;17.61;69.88
17615;BME280;8926;49.720;6.576;2022-07-01T03:03:58;99883.59;;;17.58;69.81
17615;BME280;8926;49.720;6.576;2022-07-01T03:06:23;99876.66;;;17.57;69.73
17615;BME280;8926;49.720;6.576;2022-07-01T03:08:49;99881.34;;;17.53;70.12
17615;BME280;8926;49.720;6.576;2022-07-01T03:11:14;99879.66;;;17.52;69.79
17615;BME280;8926;49.720;6.576;2022-07-01T03:13:39;99879.66;;;17.52;69.58
17615;BME280;8926;49.720;6.576;2022-07-01T03:16:04;99881.34;;;17.53;69.96
17615;BME280;8926;49.720;6.576;2022-07-01T03:18:30;99888.56;;;17.51;68.80
17615;BME280;8926;49.720;6.576;2022-07-01T03:20:55;99891.81;;;17.44;68.87
17615;BME280;8926;49.720;6.576;2022-07-01T03:23:20;99888.47;;;17.42;69.49
17615;BME280;8926;49.720;6.576;2022-07-01T03:25:45;99886.66;;;17.42;69.61
17615;BME280;8926;49.720;6.576;2022-07-01T03:28:11;99884.31;;;17.39;69.59
17615;BME280;8926;49.720;6.576;2022-07-01T03:30:37;99880.94;;;17.37;68.83
17615;BME280;8926;49.720;6.576;2022-07-01T03:33:02;99879.78;;;17.30;68.74
17615;BME280;8926;49.720;6.576;2022-07-01T03:35:27;99872.47;;;17.22;68.91
17615;BME280;8926;49.720;6.576;2022-07-01T03:38:02;99872.31;;;17.03;69.62
17615;BME280;8926;49.720;6.576;2022-07-01T03:40:29;99867.16;;;17.02;70.43
17615;BME280;8926;49.720;6.576;2022-07-01T03:42:55;99872.06;;;17.06;70.33
17615;BME280;8926;49.720;6.576;2022-07-01T03:45:20;99873.38;;;17.12;70.86
17615;BME280;8926;49.720;6.576;2022-07-01T03:47:49;99869.25;;;17.19;70.98
17615;BME280;8926;49.720;6.576;2022-07-01T03:50:15;99860.47;;;17.18;70.55
17615;BME280;8926;49.720;6.576;2022-07-01T03:52:41;99859.41;;;17.21;70.31
17615;BME280;8926;49.720;6.576;2022-07-01T03:55:08;99855.28;;;17.28;70.26
17615;BME280;8926;49.720;6.576;2022-07-01T03:57:34;99845.31;;;17.32;70.28
17615;BME280;8926;49.720;6.576;2022-07-01T03:59:59;99840.88;;;17.32;69.96
17615;BME280;8926;49.720;6.576;2022-07-01T04:02:24;99841.84;;;17.31;70.06
17615;BME280;8926;49.720;6.576;2022-07-01T04:04:50;99855.03;;;17.31;70.53
17615;BME280;8926;49.720;6.576;2022-07-01T04:07:15;99863.69;;;17.33;70.03
17615;BME280;8926;49.720;6.576;2022-07-01T04:09:40;99869.94;;;17.32;70.14
17615;BME280;8926;49.720;6.576;2022-07-01T04:12:09;99871.59;;;17.33;69.74
17615;BME280;8926;49.720;6.576;2022-07-01T04:14:36;99879.03;;;17.39;69.60
17615;BME280;8926;49.720;6.576;2022-07-01T04:17:01;99882.34;;;17.41;69.50
17615;BME280;8926;49.720;6.576;2022-07-01T04:19:27;99882.34;;;17.41;69.44
17615;BME280;8926;49.720;6.576;2022-07-01T04:21:53;99850.41;;;17.44;69.39
17615;BME280;8926;49.720;6.576;2022-07-01T04:24:37;99857.34;;;17.45;69.75
17615;BME280;8926;49.720;6.576;2022-07-01T04:27:02;99864.56;;;17.43;69.70
17615;BME280;8926;49.720;6.576;2022-07-01T04:29:28;99884.31;;;17.39;69.69
17615;BME280;8926;49.720;6.576;2022-07-01T04:31:54;99894.59;;;17.42;69.58
17615;BME280;8926;49.720;6.576;2022-07-01T04:34:20;99887.38;;;17.44;70.42
17615;BME280;8926;49.720;6.576;2022-07-01T04:36:45;99900.22;;;17.49;68.87
17615;BME280;8926;49.720;6.576;2022-07-01T04:39:11;99899.56;;;17.36;68.99
17615;BME280;8926;49.720;6.576;2022-07-01T04:41:36;99884.13;;;17.20;69.05
17615;BME280;8926;49.720;6.576;2022-07-01T04:44:20;99862.59;;;17.04;69.73
17615;BME280;8926;49.720;6.576;2022-07-01T04:46:45;99867.16;;;16.90;71.02
17615;BME280;8926;49.720;6.576;2022-07-01T04:49:11;99889.72;;;16.94;71.14
17615;BME280;8926;49.720;6.576;2022-07-01T04:51:37;99888.50;;;16.99;71.25
17615;BME280;8926;49.720;6.576;2022-07-01T04:54:03;99891.25;;;17.08;71.40
17615;BME280;8926;49.720;6.576;2022-07-01T04:56:28;99894.69;;;17.20;70.42
17615;BME280;8926;49.720;6.576;2022-07-01T04:58:55;99905.25;;;17.20;70.27
17615;BME280;8926;49.720;6.576;2022-07-01T05:01:20;99924.38;;;17.12;70.49
17615;BME280;8926;49.720;6.576;2022-07-01T05:03:46;99921.84;;;17.11;70.15
17615;BME280;8926;49.720;6.576;2022-07-01T05:06:11;99906.25;;;17.08;70.98
17615;BME280;8926;49.720;6.576;2022-07-01T05:08:36;99905.41;;;17.07;70.04
17615;BME280;8926;49.720;6.576;2022-07-01T05:11:01;99902.91;;;17.06;69.98
17615;BME280;8926;49.720;6.576;2022-07-01T05:13:27;99908.06;;;16.96;70.64
17615;BME280;8926;49.720;6.576;2022-07-01T05:15:52;99910.13;;;16.92;71.17
17615;BME280;8926;49.720;6.576;2022-07-01T05:18:18;99901.47;;;17.02;70.23
17615;BME280;8926;49.720;6.576;2022-07-01T05:21:01;99906.50;;;17.05;70.40
17615;BME280;8926;49.720;6.576;2022-07-01T05:23:45;99917.06;;;17.05;70.37
17615;BME280;8926;49.720;6.576;2022-07-01T05:26:11;99920.91;;;17.01;70.49
17615;BME280;8926;49.720;6.576;2022-07-01T05:28:42;99918.63;;;16.96;71.30
17615;BME280;8926;49.720;6.576;2022-07-01T05:31:07;99922.59;;;17.02;71.17
17615;BME280;8926;49.720;6.576;2022-07-01T05:33:32;99912.84;;;17.13;71.08
17615;BME280;8926;49.720;6.576;2022-07-01T05:35:58;99924.69;;;17.19;70.24
17615;BME280;8926;49.720;6.576;2022-07-01T05:38:23;99948.00;;;17.14;70.02
17615;BME280;8926;49.720;6.576;2022-07-01T05:40:48;99950.16;;;17.09;69.83
17615;BME280;8926;49.720;6.576;2022-07-01T05:43:13;99956.19;;;17.00;70.48
17615;BME280;8926;49.720;6.576;2022-07-01T05:45:39;99942.75;;;16.91;70.71
17615;BME280;8926;49.720;6.576;2022-07-01T05:48:04;99944.22;;;16.84;71.79
17615;BME280;8926;49.720;6.576;2022-07-01T05:50:30;99944.44;;;16.92;70.94
17615;BME280;8926;49.720;6.576;2022-07-01T05:52:55;99935.53;;;16.93;71.52
17615;BME280;8926;49.720;6.576;2022-07-01T05:55:20;99939.25;;;17.02;72.43
17615;BME280;8926;49.720;6.576;2022-07-01T05:57:46;99944.41;;;17.15;70.66
17615;BME280;8926;49.720;6.576;2022-07-01T06:00:11;99944.13;;;17.18;70.07
17615;BME280;8926;49.720;6.576;2022-07-01T06:02:37;99946.31;;;17.13;70.11
17615;BME280;8926;49.720;6.576;2022-07-01T06:05:03;99958.28;;;17.17;70.78
17615;BME280;8926;49.720;6.576;2022-07-01T06:07:29;99954.56;;;17.19;69.57
17615;BME280;8926;49.720;6.576;2022-07-01T06:09:56;99951.59;;;17.13;70.32
17615;BME280;8926;49.720;6.576;2022-07-01T06:12:21;99947.66;;;17.07;70.45
17615;BME280;8926;49.720;6.576;2022-07-01T06:14:46;99946.56;;;17.10;71.24
17615;BME280;8926;49.720;6.576;2022-07-01T06:17:12;99943.41;;;17.16;70.80
17615;BME280;8926;49.720;6.576;2022-07-01T06:19:38;99950.59;;;17.25;70.70
17615;BME280;8926;49.720;6.576;2022-07-01T06:22:04;99937.63;;;17.33;70.55
17615;BME280;8926;49.720;6.576;2022-07-01T06:24:29;99942.59;;;17.47;70.01
17615;BME280;8926;49.720;6.576;2022-07-01T06:26:54;99938.72;;;17.62;69.41
17615;BME280;8926;49.720;6.576;2022-07-01T06:29:20;99928.56;;;17.79;69.22
17615;BME280;8926;49.720;6.576;2022-07-01T06:31:45;99924.44;;;17.86;69.05
17615;BME280;8926;49.720;6.576;2022-07-01T06:34:10;99921.66;;;18.08;68.19
17615;BME280;8926;49.720;6.576;2022-07-01T06:36:36;99932.69;;;18.13;67.74
17615;BME280;8926;49.720;6.576;2022-07-01T06:39:01;99941.06;;;18.18;67.79
17615;BME280;8926;49.720;6.576;2022-07-01T06:41:26;99930.66;;;18.26;67.28
17615;BME280;8926;49.720;6.576;2022-07-01T06:43:55;99929.22;;;18.74;66.10
17615;BME280;8926;49.720;6.576;2022-07-01T06:46:21;99934.38;;;18.75;65.21
17615;BME280;8926;49.720;6.576;2022-07-01T06:48:47;99940.59;;;19.05;64.84
17615;BME280;8926;49.720;6.576;2022-07-01T06:51:12;99941.44;;;19.15;63.78
17615;BME280;8926;49.720;6.576;2022-07-01T06:53:38;99945.88;;;19.05;63.73
17615;BME280;8926;49.720;6.576;2022-07-01T06:56:04;99956.56;;;18.84;63.73
17615;BME280;8926;49.720;6.576;2022-07-01T06:58:29;99952.75;;;18.67;63.98
17615;BME280;8926;49.720;6.576;2022-07-01T07:00:54;99945.88;;;18.95;64.48
17615;BME280;8926;49.720;6.576;2022-07-01T07:03:20;99948.41;;;19.06;63.42
17615;BME280;8926;49.720;6.576;2022-07-01T07:05:45;99933.63;;;19.04;63.83
17615;BME280;8926;49.720;6.576;2022-07-01T07:08:11;99947.94;;;18.91;63.70
17615;BME280;8926;49.720;6.576;2022-07-01T07:10:36;99958.38;;;18.83;64.45
17615;BME280;8926;49.720;6.576;2022-07-01T07:13:01;99966.69;;;18.69;64.02
17615;BME280;8926;49.720;6.576;2022-07-01T07:15:27;99955.25;;;18.48;64.72
17615;BME280;8926;49.720;6.576;2022-07-01T07:17:52;99962.94;;;18.51;64.61
17615;BME280;8926;49.720;6.576;2022-07-01T07:20:19;99960.47;;;18.59;64.58
17615;BME280;8926;49.720;6.576;2022-07-01T07:22:44;99971.66;;;18.62;64.06
17615;BME280;8926;49.720;6.576;2022-07-01T07:25:10;99967.47;;;18.60;64.25
17615;BME280;8926;49.720;6.576;2022-07-01T07:27:35;99954.44;;;18.68;63.82
17615;BME280;8926;49.720;6.576;2022-07-01T07:30:00;99961.25;;;19.30;62.70
17615;BME280;8926;49.720;6.576;2022-07-01T07:32:28;99960.22;;;19.61;61.87
17615;BME280;8926;49.720;6.576;2022-07-01T07:34:53;99957.69;;;19.50;62.76
17615;BME280;8926;49.720;6.576;2022-07-01T07:37:19;99954.59;;;19.45;61.68
17615;BME280;8926;49.720;6.576;2022-07-01T07:39:44;99954.56;;;19.26;62.85
17615;BME280;8926;49.720;6.576;2022-07-01T07:42:09;99956.09;;;19.19;62.71
17615;BME280;8926;49.720;6.576;2022-07-01T07:44:34;99963.78;;;19.41;62.16
17615;BME280;8926;49.720;6.576;2022-07-01T07:47:00;99954.91;;;19.61;61.14
17615;BME280;8926;49.720;6.576;2022-07-01T07:49:25;99957.69;;;19.70;60.85
17615;BME280;8926;49.720;6.576;2022-07-01T07:51:51;99951.53;;;19.79;60.15
17615;BME280;8926;49.720;6.576;2022-07-01T07:54:17;99953.94;;;19.72;60.88
17615;BME280;8926;49.720;6.576;2022-07-01T07:56:43;99960.34;;;19.70;61.13
17615;BME280;8926;49.720;6.576;2022-07-01T07:59:08;99964.94;;;19.48;61.80
17615;BME280;8926;49.720;6.576;2022-07-01T08:01:33;99965.91;;;19.47;61.45
17615;BME280;8926;49.720;6.576;2022-07-01T08:03:59;99959.84;;;19.26;61.66
17615;BME280;8926;49.720;6.576;2022-07-01T08:06:24;99962.94;;;19.31;62.02
17615;BME280;8926;49.720;6.576;2022-07-01T08:08:49;99969.06;;;19.31;62.07
17615;BME280;8926;49.720;6.576;2022-07-01T08:11:16;99967.69;;;19.37;62.12
17615;BME280;8926;49.720;6.576;2022-07-01T08:13:41;99972.44;;;19.43;62.56
17615;BME280;8926;49.720;6.576;2022-07-01T08:16:07;99965.06;;;19.76;61.69
17615;BME280;8926;49.720;6.576;2022-07-01T08:18:33;99965.19;;;20.03;60.50
17615;BME280;8926;49.720;6.576;2022-07-01T08:20:58;99959.88;;;20.22;59.45
17615;BME280;8926;49.720;6.576;2022-07-01T08:23:23;99959.59;;;20.25;58.84
17615;BME280;8926;49.720;6.576;2022-07-01T08:25:49;99960.59;;;21.26;57.16
17615;BME280;8926;49.720;6.576;2022-07-01T08:28:16;99948.16;;;21.88;55.40
17615;BME280;8926;49.720;6.576;2022-07-01T08:30:41;99950.31;;;21.84;54.06
17615;BME280;8926;49.720;6.576;2022-07-01T08:33:07;99958.63;;;22.25;52.25
17615;BME280;8926;49.720;6.576;2022-07-01T08:35:33;99962.53;;;21.95;52.85
17615;BME280;8926;49.720;6.576;2022-07-01T08:37:58;99969.00;;;21.57;53.59
17615;BME280;8926;49.720;6.576;2022-07-01T08:40:28;99980.16;;;21.25;53.97
17615;BME280;8926;49.720;6.576;2022-07-01T08:43:05;99983.09;;;20.94;54.81
17615;BME280;8926;49.720;6.576;2022-07-01T08:45:32;99980.81;;;20.72;55.09
17615;BME280;8926;49.720;6.576;2022-07-01T08:47:59;99978.66;;;20.85;55.44
17615;BME280;8926;49.720;6.576;2022-07-01T08:50:34;99975.41;;;20.91;54.46
17615;BME280;8926;49.720;6.576;2022-07-01T08:53:00;99990.78;;;20.97;54.68
17615;BME280;8926;49.720;6.576;2022-07-01T08:55:26;99989.28;;;20.85;54.28
17615;BME280;8926;49.720;6.576;2022-07-01T08:57:51;99995.53;;;20.66;55.51
17615;BME280;8926;49.720;6.576;2022-07-01T09:00:17;99995.25;;;20.60;55.85
17615;BME280;8926;49.720;6.576;2022-07-01T09:02:53;99985.22;;;20.54;55.76
17615;BME280;8926;49.720;6.576;2022-07-01T09:05:19;99991.63;;;20.61;55.70
17615;BME280;8926;49.720;6.576;2022-07-01T09:07:46;99993.00;;;20.65;55.79
17615;BME280;8926;49.720;6.576;2022-07-01T09:10:19;99998.94;;;21.14;55.17
17615;BME280;8926;49.720;6.576;2022-07-01T09:12:45;99978.97;;;22.08;53.74
17615;BME280;8926;49.720;6.576;2022-07-01T09:15:26;99976.22;;;22.00;51.05
17615;BME280;8926;49.720;6.576;2022-07-01T09:17:53;99984.00;;;21.76;51.51
17615;BME280;8926;49.720;6.576;2022-07-01T09:20:30;99967.88;;;21.59;50.30
17615;BME280;8926;49.720;6.576;2022-07-01T09:23:07;99990.66;;;21.44;50.83
17615;BME280;8926;49.720;6.576;2022-07-01T09:25:40;99990.81;;;21.25;50.26
17615;BME280;8926;49.720;6.576;2022-07-01T09:28:11;99996.13;;;21.60;50.19
17615;BME280;8926;49.720;6.576;2022-07-01T09:30:46;99989.66;;;22.16;48.49
17615;BME280;8926;49.720;6.576;2022-07-01T09:33:14;99987.81;;;22.68;48.02
17615;BME280;8926;49.720;6.576;2022-07-01T09:35:40;99984.84;;;22.72;47.24
17615;BME280;8926;49.720;6.576;2022-07-01T09:38:07;99976.03;;;23.13;46.57
17615;BME280;8926;49.720;6.576;2022-07-01T09:40:57;99965.53;;;23.62;46.10
17615;BME280;8926;49.720;6.576;2022-07-01T09:43:25;99964.28;;;23.40;46.63
17615;BME280;8926;49.720;6.576;2022-07-01T09:45:53;99974.97;;;22.90;45.86
17615;BME280;8926;49.720;6.576;2022-07-01T09:48:21;99985.25;;;22.51;47.29
17615;BME280;8926;49.720;6.576;2022-07-01T09:50:47;99983.97;;;22.63;47.03
17615;BME280;8926;49.720;6.576;2022-07-01T09:53:12;99970.22;;;23.10;45.79
17615;BME280;8926;49.720;6.576;2022-07-01T09:55:39;99969.63;;;23.48;44.84
17615;BME280;8926;49.720;6.576;2022-07-01T09:58:08;99963.69;;;23.62;44.06
17615;BME280;8926;49.720;6.576;2022-07-01T10:00:35;99965.03;;;23.75;41.60
17615;BME280;8926;49.720;6.576;2022-07-01T10:03:02;99972.03;;;23.76;40.52
17615;BME280;8926;49.720;6.576;2022-07-01T10:05:30;99963.22;;;23.83;40.50
17615;BME280;8926;49.720;6.576;2022-07-01T10:14:03;99969.97;;;23.45;41.08
17615;BME280;8926;49.720;6.576;2022-07-01T10:16:30;99979.41;;;23.23;41.47
17615;BME280;8926;49.720;6.576;2022-07-01T10:18:56;99987.19;;;22.75;41.84
17615;BME280;8926;49.720;6.576;2022-07-01T10:21:29;99991.72;;;22.22;43.67
17615;BME280;8926;49.720;6.576;2022-07-01T10:24:11;100003.09;;;22.58;43.88
17615;BME280;8926;49.720;6.576;2022-07-01T10:26:37;99995.22;;;23.09;43.08
17615;BME280;8926;49.720;6.576;2022-07-01T10:29:02;99980.97;;;23.34;40.55
17615;BME280;8926;49.720;6.576;2022-07-01T10:31:36;99980.53;;;23.55;40.00
17615;BME280;8926;49.720;6.576;2022-07-01T10:34:03;99974.34;;;23.71;39.27
17615;BME280;8926;49.720;6.576;2022-07-01T10:36:34;99982.72;;;23.84;39.16
17615;BME280;8926;49.720;6.576;2022-07-01T10:44:04;99973.16;;;24.22;38.77
17615;BME280;8926;49.720;6.576;2022-07-01T10:46:49;99985.06;;;23.87;39.80
17615;BME280;8926;49.720;6.576;2022-07-01T10:52:09;99973.63;;;24.66;39.02
17615;BME280;8926;49.720;6.576;2022-07-01T10:59:47;99976.72;;;24.30;36.92
17615;BME280;8926;49.720;6.576;2022-07-01T11:02:33;99971.66;;;24.44;38.38
17615;BME280;8926;49.720;6.576;2022-07-01T11:05:07;99975.25;;;24.75;38.45
17615;BME280;8926;49.720;6.576;2022-07-01T11:07:34;99963.44;;;25.40;36.58
17615;BME280;8926;49.720;6.576;2022-07-01T11:10:00;99966.00;;;25.25;36.68
17615;BME280;8926;49.720;6.576;2022-07-01T11:12:28;99966.47;;;25.06;37.88
17615;BME280;8926;49.720;6.576;2022-07-01T11:14:55;99970.88;;;24.82;37.19
17615;BME280;8926;49.720;6.576;2022-07-01T11:17:21;99968.13;;;24.51;36.96
17615;BME280;8926;49.720;6.576;2022-07-01T11:19:48;99980.03;;;24.32;38.12
17615;BME280;8926;49.720;6.576;2022-07-01T11:22:24;99986.06;;;24.26;37.74
17615;BME280;8926;49.720;6.576;2022-07-01T11:24:54;99982.53;;;24.18;37.92
17615;BME280;8926;49.720;6.576;2022-07-01T11:27:20;99972.38;;;24.05;38.65
17615;BME280;8926;49.720;6.576;2022-07-01T11:29:53;99972.84;;;23.92;39.45
17615;BME280;8926;49.720;6.576;2022-07-01T11:32:30;99988.97;;;23.50;40.54
17615;BME280;8926;49.720;6.576;2022-07-01T11:34:57;99974.88;;;23.58;39.85
17615;BME280;8926;49.720;6.576;2022-07-01T11:37:26;99980.72;;;23.78;40.00
17615;BME280;8926;49.720;6.576;2022-07-01T11:40:13;99983.72;;;24.15;39.04
17615;BME280;8926;49.720;6.576;2022-07-01T11:42:39;99971.22;;;24.79;38.87
17615;BME280;8926;49.720;6.576;2022-07-01T11:45:05;99962.22;;;25.19;38.69
17615;BME280;8926;49.720;6.576;2022-07-01T11:47:31;99953.91;;;25.37;37.95
17615;BME280;8926;49.720;6.576;2022-07-01T11:49:57;99955.81;;;24.89;38.29
17615;BME280;8926;49.720;6.576;2022-07-01T11:52:23;99962.63;;;24.61;38.35
17615;BME280;8926;49.720;6.576;2022-07-01T11:54:54;99963.03;;;24.25;38.78
17615;BME280;8926;49.720;6.576;2022-07-01T11:57:25;99972.03;;;23.92;38.82
17615;BME280;8926;49.720;6.576;2022-07-01T11:59:55;99965.72;;;23.85;39.35
17615;BME280;8926;49.720;6.576;2022-07-01T12:02:22;99959.69;;;23.91;39.80
17615;BME280;8926;49.720;6.576;2022-07-01T12:04:49;99966.69;;;23.92;39.97
17615;BME280;8926;49.720;6.576;2022-07-01T12:07:16;99960.31;;;24.17;39.15
17615;BME280;8926;49.720;6.576;2022-07-01T12:09:44;99957.16;;;24.38;39.39
17615;BME280;8926;49.720;6.576;2022-07-01T12:12:17;99951.97;;;24.45;36.68
17615;BME280;8926;49.720;6.576;2022-07-01T12:14:50;99951.94;;;24.61;37.97
17615;BME280;8926;49.720;6.576;2022-07-01T12:17:16;99949.28;;;24.53;36.67
17615;BME280;8926;49.720;6.576;2022-07-01T12:19:43;99948.59;;;24.59;36.32
17615;BME280;8926;49.720;6.576;2022-07-01T12:22:15;99940.94;;;24.48;36.89
17615;BME280;8926;49.720;6.576;2022-07-01T12:24:41;99948.31;;;24.38;37.69
17615;BME280;8926;49.720;6.576;2022-07-01T12:27:07;99947.81;;;24.42;37.87
17615;BME280;8926;49.720;6.576;2022-07-01T12:32:12;99937.41;;;24.55;38.02
17615;BME280;8926;49.720;6.576;2022-07-01T12:34:59;99936.25;;;24.50;37.14
17615;BME280;8926;49.720;6.576;2022-07-01T12:37:37;99938.41;;;24.62;37.63
17615;BME280;8926;49.720;6.576;2022-07-01T12:40:21;99932.16;;;24.70;36.79
17615;BME280;8926;49.720;6.576;2022-07-01T12:42:46;99925.69;;;25.03;37.19
17615;BME280;8926;49.720;6.576;2022-07-01T12:45:15;99933.44;;;25.21;36.84
17615;BME280;8926;49.720;6.576;2022-07-01T12:47:46;99922.19;;;25.34;35.84
17615;BME280;8926;49.720;6.576;2022-07-01T12:50:23;99930.25;;;25.26;34.85
17615;BME280;8926;49.720;6.576;2022-07-01T12:55:42;99937.91;;;24.59;34.17
17615;BME280;8926;49.720;6.576;2022-07-01T12:58:19;99935.91;;;24.61;35.06
17615;BME280;8926;49.720;6.576;2022-07-01T13:00:48;99935.06;;;24.60;35.28
17615;BME280;8926;49.720;6.576;2022-07-01T13:03:17;99937.56;;;24.62;35.17
17615;BME280;8926;49.720;6.576;2022-07-01T13:05:43;99931.16;;;24.71;34.80
17615;BME280;8926;49.720;6.576;2022-07-01T13:08:09;99943.94;;;24.53;35.43
17615;BME280;8926;49.720;6.576;2022-07-01T13:10:35;99942.75;;;24.55;36.00
17615;BME280;8926;49.720;6.576;2022-07-01T13:13:00;99932.22;;;24.62;35.27
17615;BME280;8926;49.720;6.576;2022-07-01T13:15:26;99945.00;;;24.35;35.48
17615;BME280;8926;49.720;6.576;2022-07-01T13:17:52;99951.66;;;24.31;36.71
17615;BME280;8926;49.720;6.576;2022-07-01T13:20:17;99953.69;;;24.29;36.39
17615;BME280;8926;49.720;6.576;2022-07-01T13:22:43;99958.34;;;24.03;35.74
17615;BME280;8926;49.720;6.576;2022-07-01T13:25:10;99954.00;;;23.94;35.87
17615;BME280;8926;49.720;6.576;2022-07-01T13:27:36;99962.03;;;23.69;36.54
17615;BME280;8926;49.720;6.576;2022-07-01T13:30:03;99965.19;;;23.65;36.43
17615;BME280;8926;49.720;6.576;2022-07-01T13:32:29;99966.38;;;23.62;36.60
17615;BME280;8926;49.720;6.576;2022-07-01T13:34:54;99962.38;;;23.83;35.85